Hudgins, Virginia
Current Conditions -  °F | °C
As of 7:35 AM on Monday 22 Dec 2014 (Local Time) from KW75 Reporting Station
Overcast Overcast  
Wind Chill:   Ceiling: 4500
Heat Index:   Visibility: 7mi
Dew Point:   Wind: 5mph
Humidity: 81%   Direction: 40°NE
Pressure: 30.25"   Gusts: NA
Location:  37.47°N, 76.33°W
Report Text: KW75 221235Z AUTO 04004KT 7SM BKN045 BKN055 OVC080 03/01 A3025 RMK AO1 T00340005
Loading
Personal Weather Stations






























Interactive Weather Map New forecast layout! Learn more

10-Day Weather Forecast

Advertisements
Track Severe Weather on mobile